createdAt,value
2023-04-01T00:00:26.311Z,96913.38
2023-04-01T00:02:54.814Z,96913.38
2023-04-01T00:05:21.618Z,96913.75
2023-04-01T00:07:50.100Z,96902.56
2023-04-01T00:10:16.746Z,96903.31
2023-04-01T00:12:46.716Z,96906.81
2023-04-01T00:15:13.558Z,96901.44
2023-04-01T00:17:40.189Z,96904.50
2023-04-01T00:20:08.966Z,96912.94
2023-04-01T00:22:41.982Z,96912.19
2023-04-01T00:25:08.831Z,96908.31
2023-04-01T00:27:35.373Z,96909.13
2023-04-01T00:30:02.402Z,96908.38
2023-04-01T00:32:28.925Z,96902.63
2023-04-01T00:34:55.741Z,96901.06
2023-04-01T00:37:24.546Z,96905.31
2023-04-01T00:39:51.112Z,96903.41
2023-04-01T00:42:17.774Z,96896.91
2023-04-01T00:44:51.294Z,96905.34
2023-04-01T00:47:18.341Z,96900.72
2023-04-01T00:49:52.130Z,96906.16
2023-04-01T00:52:23.890Z,96887.72
2023-04-01T00:54:56.532Z,96889.66
2023-04-01T00:57:34.410Z,96896.97
2023-04-01T01:00:01.359Z,96896.22
2023-04-01T01:10:38.629Z,96882.69
2023-04-01T01:13:23.314Z,96893.81
2023-04-01T01:16:11.016Z,96890.34
2023-04-01T01:18:46.323Z,96887.22
2023-04-01T01:21:39.523Z,96883.75
2023-04-01T01:24:57.106Z,96878.31
2023-04-01T01:27:29.902Z,96876.38
2023-04-01T01:30:18.302Z,96877.13
2023-04-01T01:33:03.059Z,96869.44
2023-04-01T01:35:36.989Z,96872.88
2023-04-01T01:38:09.424Z,96867.50
2023-04-01T01:40:42.866Z,96863.38
2023-04-01T01:43:12.773Z,96856.56
2023-04-01T01:45:46.642Z,96865.16
2023-04-01T01:48:13.471Z,96871.41
2023-04-01T01:50:43.516Z,96875.72
2023-04-01T01:53:13.448Z,96866.94
2023-04-01T01:55:46.531Z,96863.91
2023-04-01T01:58:32.829Z,96863.19
2023-04-01T02:01:02.376Z,96870.16
2023-04-01T02:03:32.910Z,96874.03
2023-04-01T02:06:03.463Z,96875.56
2023-04-01T02:08:37.600Z,96864.81
2023-04-01T02:11:10.196Z,96865.59
2023-04-01T02:13:42.937Z,96873.66
2023-04-01T02:16:29.361Z,96863.28
2023-04-01T02:18:58.751Z,96856.34
2023-04-01T02:21:28.993Z,96865.22
2023-04-01T02:23:58.582Z,96862.50
2023-04-01T02:26:27.521Z,96864.06
2023-04-01T02:28:56.061Z,96868.66
2023-04-01T02:31:26.259Z,96871.34
2023-04-01T02:33:54.370Z,96870.59
2023-04-01T02:36:21.593Z,96870.22
2023-04-01T02:38:58.154Z,96874.06
2023-04-01T02:41:27.189Z,96873.72
2023-04-01T02:43:53.698Z,96877.56
2023-04-01T02:46:20.586Z,96877.16
2023-04-01T02:48:47.124Z,96872.94
2023-04-01T02:51:13.828Z,96870.63
2023-04-01T02:53:40.580Z,96873.72
2023-04-01T02:56:07.122Z,96861.81
2023-04-01T02:58:33.619Z,96854.09
2023-04-01T03:01:02.561Z,96853.72
2023-04-01T03:03:32.592Z,96850.25
2023-04-01T03:06:01.427Z,96846.41
2023-04-01T03:08:28.060Z,96854.50
2023-04-01T03:10:54.537Z,96861.03
2023-04-01T03:13:21.046Z,96860.63
2023-04-01T03:15:56.148Z,96876.81
2023-04-01T03:18:22.885Z,96877.16
2023-04-01T03:20:49.376Z,96882.47
2023-04-01T03:23:18.505Z,96889.75
2023-04-01T03:25:46.700Z,96916.19
2023-04-01T03:28:14.173Z,96902.63
2023-04-01T03:30:40.975Z,96891.75
2023-04-01T03:33:07.819Z,96871.72
2023-04-01T03:35:36.966Z,96867.00
2023-04-01T03:38:08.080Z,96860.81
2023-04-01T03:40:38.219Z,96860.03
2023-04-01T03:43:11.502Z,96868.03
2023-04-01T03:45:48.633Z,96864.94
2023-04-01T03:48:19.801Z,96870.25
2023-04-01T03:50:46.447Z,96868.31
2023-04-01T03:53:13.285Z,96866.78
2023-04-01T03:55:40.898Z,96869.84
2023-04-01T03:58:09.827Z,96872.88
2023-04-01T04:00:37.018Z,96871.00
2023-04-01T04:03:05.680Z,96861.75
2023-04-01T04:05:32.543Z,96857.13
2023-04-01T04:07:59.359Z,96867.50
2023-04-01T04:10:32.373Z,96867.13
2023-04-01T04:12:58.853Z,96862.50
2023-04-01T04:15:25.352Z,96861.75
2023-04-01T04:17:52.068Z,96876.44
2023-04-01T04:20:18.644Z,96874.97
2023-04-01T04:22:47.042Z,96865.41
2023-04-01T04:27:58.499Z,96868.19
2023-04-01T04:30:31.574Z,96869.31
2023-04-01T04:32:58.063Z,96862.81
2023-04-01T04:35:24.666Z,96865.53
2023-04-01T04:37:51.342Z,96872.84
2023-04-01T04:40:17.946Z,96874.00
2023-04-01T04:42:44.611Z,96875.16
2023-04-01T04:45:11.982Z,96878.19
2023-04-01T04:47:38.550Z,96874.38
2023-04-01T04:50:05.620Z,96867.47
2023-04-01T04:52:33.852Z,96871.31
2023-04-01T04:55:01.806Z,96872.09
2023-04-01T04:57:28.338Z,96866.72
2023-04-01T04:59:55.137Z,96863.66
2023-04-01T05:02:24.069Z,96863.22
2023-04-01T05:04:50.604Z,96873.25
2023-04-01T05:07:19.273Z,96872.13
2023-04-01T05:09:46.790Z,96872.56
2023-04-01T05:12:14.028Z,96882.19
2023-04-01T05:14:40.851Z,96880.63
2023-04-01T05:17:11.628Z,96869.88
2023-04-01T05:19:39.001Z,96862.22
2023-04-01T05:22:06.541Z,96868.34
2023-04-01T05:24:33.672Z,96874.53
2023-04-01T05:27:00.529Z,96872.59
2023-04-01T05:29:29.442Z,96869.50
2023-04-01T05:31:55.903Z,96871.41
2023-04-01T05:34:22.386Z,96869.91
2023-04-01T05:36:48.860Z,96862.97
2023-04-01T05:39:15.385Z,96878.38
2023-04-01T05:41:41.867Z,96866.88
2023-04-01T05:44:08.473Z,96865.69
2023-04-01T05:46:35.089Z,96864.94
2023-04-01T05:49:01.591Z,96868.44
2023-04-01T05:51:29.802Z,96880.75
2023-04-01T05:53:56.339Z,96879.19
2023-04-01T05:56:23.079Z,96873.81
2023-04-01T05:58:54.774Z,96866.91
2023-04-01T06:01:21.794Z,96866.91
2023-04-01T06:03:48.597Z,96863.06
2023-04-01T06:06:26.307Z,96863.09
2023-04-01T06:08:54.473Z,96855.00
2023-04-01T06:11:56.820Z,96863.13
2023-04-01T06:14:50.631Z,96863.16
2023-04-01T06:17:37.770Z,96866.97
2023-04-01T06:20:20.900Z,96880.03
2023-04-01T06:23:10.469Z,96872.34
2023-04-01T06:26:01.212Z,96868.91
2023-04-01T06:29:24.999Z,96867.00
2023-04-01T06:32:15.141Z,96863.19
2023-04-01T06:34:54.163Z,96864.72
2023-04-01T06:37:42.532Z,96863.19
2023-04-01T06:40:47.297Z,96856.63
2023-04-01T06:43:38.383Z,96868.16
2023-04-01T06:46:48.445Z,96853.13
2023-04-01T06:49:36.744Z,96854.66
2023-04-01T06:52:33.222Z,96864.28
2023-04-01T06:55:05.775Z,96856.22
2023-04-01T06:57:41.118Z,96873.91
2023-04-01T07:00:40.885Z,96869.28
2023-04-01T07:03:36.267Z,96878.50
2023-04-01T07:06:10.358Z,96868.53
2023-04-01T07:08:42.242Z,96873.53
2023-04-01T07:11:12.601Z,96869.28
2023-04-01T07:14:05.488Z,96878.53
2023-04-01T07:16:58.005Z,96868.56
2023-04-01T07:19:39.290Z,96868.56
2023-04-01T07:22:15.626Z,96865.47
2023-04-01T07:24:44.388Z,96870.91
2023-04-01T07:27:13.219Z,96877.84
2023-04-01T07:29:40.157Z,96877.84
2023-04-01T07:32:39.392Z,96877.06
2023-04-01T07:35:31.166Z,96876.31
2023-04-01T07:38:12.568Z,96885.56
2023-04-01T07:40:43.980Z,96878.66
2023-04-01T07:43:56.849Z,96885.97
2023-04-01T07:46:48.596Z,96892.56
2023-04-01T07:49:39.661Z,96893.31
2023-04-01T07:52:31.186Z,96901.81
2023-04-01T07:55:12.355Z,96904.91
2023-04-01T07:57:53.759Z,96902.59
2023-04-01T08:00:40.737Z,96902.25
2023-04-01T08:03:27.611Z,96913.03
2023-04-01T08:06:06.839Z,96908.00
2023-04-01T08:08:57.989Z,96914.19
2023-04-01T08:11:25.139Z,96912.63
2023-04-01T08:14:21.708Z,96918.03
2023-04-01T08:17:03.556Z,96923.78
2023-04-01T08:19:56.976Z,96920.69
2023-04-01T08:22:31.649Z,96921.47
2023-04-01T08:25:03.652Z,96920.69
2023-04-01T08:27:57.245Z,96925.31
2023-04-01T08:30:34.526Z,96911.47
2023-04-01T08:33:12.527Z,96909.94
2023-04-01T08:35:46.268Z,96918.81
2023-04-01T08:38:21.404Z,96913.06
2023-04-01T08:40:58.800Z,96909.59
2023-04-01T08:44:03.336Z,96911.91
2023-04-01T08:47:06.868Z,96910.38
2023-04-01T08:49:57.853Z,96917.31
2023-04-01T08:53:04.710Z,96913.09
2023-04-01T08:56:07.569Z,96913.88
2023-04-01T08:59:11.773Z,96913.09
2023-04-01T09:02:02.145Z,96918.88
2023-04-01T09:04:57.998Z,96913.47
2023-04-01T09:07:42.242Z,96916.56
2023-04-01T09:10:27.383Z,96921.97
2023-04-01T09:13:22.238Z,96914.25
2023-04-01T09:15:58.663Z,96920.06
2023-04-01T09:18:47.758Z,96920.81
2023-04-01T09:21:37.384Z,96916.63
2023-04-01T09:24:43.693Z,96915.06
2023-04-01T09:27:22.176Z,96918.94
2023-04-01T09:30:21.333Z,96917.41
2023-04-01T09:33:06.434Z,96916.22
2023-04-01T09:35:49.357Z,96923.94
2023-04-01T09:38:18.601Z,96929.72
2023-04-01T09:41:05.316Z,96929.34
2023-04-01T09:43:53.432Z,96925.09
2023-04-01T09:46:28.242Z,96934.38
2023-04-01T09:49:14.199Z,96940.50
2023-04-01T09:52:17.457Z,96929.72
2023-04-01T09:54:53.416Z,96940.50
2023-04-01T09:57:42.034Z,96948.59
2023-04-01T10:00:39.665Z,96947.06
2023-04-01T10:03:33.723Z,96950.53
2023-04-01T10:06:22.015Z,96950.53
2023-04-01T10:09:22.471Z,96946.66
2023-04-01T10:12:22.296Z,96944.34
2023-04-01T10:15:22.955Z,96940.50
2023-04-01T10:18:21.579Z,96949.00
2023-04-01T10:21:18.957Z,96951.31
2023-04-01T10:24:23.373Z,96949.00
2023-04-01T10:27:39.421Z,96941.69
2023-04-01T10:30:47.627Z,96944.38
2023-04-01T10:33:39.179Z,96936.28
2023-04-01T10:36:43.272Z,96946.69
2023-04-01T10:39:21.185Z,96940.50
2023-04-01T10:42:17.350Z,96941.28
2023-04-01T10:45:04.448Z,96945.53
2023-04-01T10:47:45.946Z,96951.31
2023-04-01T10:50:38.331Z,96948.22
2023-04-01T10:53:14.925Z,96947.06
2023-04-01T10:56:16.708Z,96941.28
2023-04-01T10:59:20.243Z,96942.44
2023-04-01T11:02:11.840Z,96947.81
2023-04-01T11:04:58.478Z,96947.44
2023-04-01T11:07:50.484Z,96954.41
2023-04-01T11:10:25.731Z,96956.31
2023-04-01T11:13:07.540Z,96952.09
2023-04-01T11:15:42.904Z,96971.69
2023-04-01T11:18:46.879Z,96978.59
2023-04-01T11:21:50.696Z,96981.28
2023-04-01T11:24:39.059Z,96979.72
2023-04-01T11:27:43.751Z,96977.03
2023-04-01T11:30:22.706Z,96975.13
2023-04-01T11:33:11.540Z,96974.75
2023-04-01T11:36:09.235Z,96972.06
2023-04-01T11:38:52.180Z,96971.69
2023-04-01T11:41:23.979Z,96969.00
2023-04-01T11:44:11.310Z,96964.41
2023-04-01T11:47:17.355Z,96964.03
2023-04-01T11:50:28.495Z,96962.09
2023-04-01T11:53:14.891Z,96954.38
2023-04-01T11:55:42.016Z,96961.72
2023-04-01T11:58:39.195Z,96950.94
2023-04-01T12:01:17.845Z,96949.00
2023-04-01T12:04:12.202Z,96951.69
2023-04-01T12:07:00.561Z,96955.53
2023-04-01T12:09:49.213Z,96950.47
2023-04-01T12:12:34.498Z,96946.22
2023-04-01T12:15:16.094Z,96946.16
2023-04-01T12:17:57.535Z,96941.84
2023-04-01T12:20:45.635Z,96948.69
2023-04-01T12:23:27.901Z,96935.13
2023-04-01T12:26:16.513Z,96930.06
2023-04-01T12:29:00.362Z,96932.28
2023-04-01T12:31:50.398Z,96927.25
2023-04-01T12:34:44.904Z,96924.44
2023-04-01T12:37:27.895Z,96930.66
2023-04-01T12:40:20.840Z,96923.00
2023-04-01T12:42:58.389Z,96920.28
2023-04-01T12:45:33.084Z,96918.34
2023-04-01T12:48:22.710Z,96920.25
2023-04-01T12:50:54.930Z,96923.34
2023-04-01T12:53:40.875Z,96912.97
2023-04-01T12:56:31.453Z,96922.97
2023-04-01T12:59:13.815Z,96924.50
2023-04-01T13:01:46.751Z,96919.06
2023-04-01T13:04:46.103Z,96920.59
2023-04-01T13:07:31.463Z,96929.88
2023-04-01T13:10:21.439Z,96922.88
2023-04-01T13:13:16.479Z,96921.34
2023-04-01T13:15:47.542Z,96934.16
2023-04-01T13:18:29.184Z,96937.69
2023-04-01T13:21:28.081Z,96928.03
2023-04-01T13:24:10.223Z,96930.81
2023-04-01T13:26:59.697Z,96944.81
2023-04-01T13:29:44.864Z,96956.50
2023-04-01T13:35:35.001Z,96938.13
2023-04-01T13:38:18.596Z,96937.38
2023-04-01T13:41:14.029Z,96942.41
2023-04-01T13:43:52.361Z,96945.88
2023-04-01T13:46:36.144Z,96952.03
2023-04-01T13:49:23.924Z,96948.97
2023-04-01T13:52:05.984Z,96957.44
2023-04-01T13:55:01.252Z,96960.13
2023-04-01T13:58:03.841Z,96962.44
2023-04-01T14:00:56.874Z,96968.25
2023-04-01T14:03:42.380Z,96961.28
2023-04-01T14:06:52.611Z,96969.78
2023-04-01T14:09:31.450Z,96959.00
2023-04-01T14:12:26.497Z,96943.56
2023-04-01T14:15:22.621Z,96942.00
2023-04-01T14:18:04.015Z,96944.69
2023-04-01T14:20:41.895Z,96943.94
2023-04-01T14:23:38.472Z,96943.50
2023-04-01T14:26:23.969Z,96944.28
2023-04-01T14:29:09.336Z,96942.69
2023-04-01T14:31:58.330Z,96945.75
2023-04-01T14:35:01.446Z,96952.22
2023-04-01T14:37:49.660Z,96939.41
2023-04-01T14:40:58.456Z,96947.47
2023-04-01T14:44:06.996Z,96938.47
2023-04-01T14:46:56.705Z,96935.38
2023-04-01T14:49:32.050Z,96941.09
2023-04-01T14:52:27.469Z,96933.78
2023-04-01T14:54:54.715Z,96936.06
2023-04-01T14:57:39.211Z,96932.84
2023-04-01T15:00:15.791Z,96950.13
2023-04-01T15:02:50.470Z,96947.47
2023-04-01T15:05:38.772Z,96948.69
2023-04-01T15:08:14.108Z,96948.69
2023-04-01T15:11:04.640Z,96950.63
2023-04-01T15:13:33.466Z,96942.91
2023-04-01T15:16:12.342Z,96937.03
2023-04-01T15:18:57.612Z,96928.75
2023-04-01T15:21:35.969Z,96930.22
2023-04-01T15:24:19.282Z,96931.75
2023-04-01T15:27:16.893Z,96940.25
2023-04-01T15:30:05.890Z,96931.75
2023-04-01T15:32:44.398Z,96932.91
2023-04-01T15:35:31.625Z,96940.38
2023-04-01T15:38:08.482Z,96936.16
2023-04-01T15:40:39.755Z,96934.25
2023-04-01T15:43:15.884Z,96939.34
2023-04-01T15:45:53.768Z,96942.06
2023-04-01T15:48:27.238Z,96934.78
2023-04-01T15:51:22.387Z,96937.53
2023-04-01T15:54:18.238Z,96932.16
2023-04-01T15:56:51.608Z,96929.06
2023-04-01T15:59:30.463Z,96927.94
2023-04-01T16:02:06.885Z,96927.97
2023-04-01T16:05:08.605Z,96934.22
2023-04-01T16:08:04.110Z,96931.50
2023-04-01T16:10:56.991Z,96935.53
2023-04-01T16:13:41.455Z,96942.97
2023-04-01T16:16:18.243Z,96937.97
2023-04-01T16:18:56.310Z,96926.38
2023-04-01T16:21:47.390Z,96929.09
2023-04-01T16:24:32.557Z,96922.53
2023-04-01T16:27:09.006Z,96928.69
2023-04-01T16:29:52.779Z,96917.84
2023-04-01T16:32:47.006Z,96925.13
2023-04-01T16:35:46.415Z,96922.41
2023-04-01T16:38:31.204Z,96932.06
2023-04-01T16:41:17.743Z,96935.56
2023-04-01T16:43:54.715Z,96940.22
2023-04-01T16:46:35.405Z,96940.22
2023-04-01T16:49:28.862Z,96955.69
2023-04-01T16:52:01.942Z,96953.00
2023-04-01T16:54:36.719Z,96953.41
2023-04-01T16:57:19.220Z,96966.59
2023-04-01T16:59:48.976Z,96966.25
2023-04-01T17:02:18.616Z,96966.66
2023-04-01T17:04:51.315Z,96962.84
2023-04-01T17:07:32.776Z,96969.00
2023-04-01T17:10:27.603Z,96965.91
2023-04-01T17:13:09.425Z,96960.91
2023-04-01T17:15:46.989Z,96964.38
2023-04-01T17:18:25.717Z,96959.75
2023-04-01T17:21:08.951Z,96958.97
2023-04-01T17:23:45.069Z,96966.69
2023-04-01T17:26:38.285Z,96973.28
2023-04-01T17:29:34.368Z,96978.31
2023-04-01T17:32:10.688Z,96968.28
2023-04-01T17:35:18.920Z,96977.16
2023-04-01T17:37:53.093Z,96977.13
2023-04-01T17:40:38.335Z,96978.69
2023-04-01T17:43:24.277Z,96976.00
2023-04-01T17:45:56.836Z,96980.25
2023-04-01T17:49:04.337Z,96980.59
2023-04-01T17:51:59.595Z,96977.50
2023-04-01T17:54:53.041Z,96975.19
2023-04-01T17:58:05.956Z,96972.50
2023-04-01T18:00:54.577Z,96980.59
2023-04-01T18:03:33.397Z,96991.41
2023-04-01T18:06:24.596Z,96996.41
2023-04-01T18:09:00.359Z,96994.44
2023-04-01T18:11:38.378Z,97002.88
2023-04-01T18:14:31.191Z,97010.97
2023-04-01T18:17:18.957Z,97014.84
2023-04-01T18:20:02.478Z,97017.16
2023-04-01T18:22:46.881Z,97018.31
2023-04-01T18:25:23.599Z,97025.25
2023-04-01T18:28:11.548Z,97022.94
2023-04-01T18:30:44.137Z,97031.38
2023-04-01T18:33:30.640Z,97036.00
2023-04-01T18:36:49.036Z,97040.59
2023-04-01T18:39:27.248Z,97052.16
2023-04-01T18:42:17.464Z,97061.75
2023-04-01T18:45:31.070Z,97069.09
2023-04-01T18:48:36.291Z,97070.22
2023-04-01T18:51:15.039Z,97081.78
2023-04-01T18:53:54.698Z,97082.94
2023-04-01T18:56:35.682Z,97094.50
2023-04-01T18:59:11.680Z,97097.56
2023-04-01T19:01:51.562Z,97100.22
2023-04-01T19:04:33.038Z,97098.31
2023-04-01T19:07:40.523Z,97103.31
2023-04-01T19:10:25.008Z,97106.75
2023-04-01T19:13:08.288Z,97101.72
2023-04-01T19:15:40.864Z,97096.72
2023-04-01T19:18:46.305Z,97090.94
2023-04-01T19:21:39.628Z,97097.47
2023-04-01T19:24:40.098Z,97097.84
2023-04-01T19:27:21.317Z,97088.97
2023-04-01T19:29:57.146Z,97083.56
2023-04-01T19:32:34.645Z,97077.38
2023-04-01T19:35:51.149Z,97075.81
2023-04-01T19:38:36.032Z,97077.31
2023-04-01T19:41:16.467Z,97082.63
2023-04-01T19:44:05.871Z,97090.66
2023-04-01T19:46:39.560Z,97079.47
2023-04-01T19:49:30.864Z,97080.59
2023-04-01T19:52:21.216Z,97086.31
2023-04-01T19:55:16.134Z,97087.44
2023-04-01T19:58:06.562Z,97086.25
2023-04-01T20:00:41.962Z,97093.16
2023-04-01T20:03:27.829Z,97088.91
2023-04-01T20:06:16.069Z,97096.16
2023-04-01T20:08:54.713Z,97101.16
2023-04-01T20:11:49.902Z,97101.50
2023-04-01T20:14:40.248Z,97111.47
2023-04-01T20:17:28.313Z,97118.34
2023-04-01T20:20:04.784Z,97121.41
2023-04-01T20:22:46.835Z,97119.81
2023-04-01T20:25:22.314Z,97124.78
2023-04-01T20:27:55.466Z,97137.09
2023-04-01T20:30:44.480Z,97133.19
2023-04-01T20:34:07.816Z,97132.03
2023-04-01T20:36:59.668Z,97141.59
2023-04-01T20:39:41.701Z,97134.25
2023-04-01T20:42:23.932Z,97142.34
2023-04-01T20:45:08.092Z,97140.78
2023-04-01T20:48:03.905Z,97137.66
2023-04-01T20:50:35.431Z,97138.84
2023-04-01T20:53:12.806Z,97141.09
2023-04-01T20:55:57.745Z,97141.84
2023-04-01T20:58:45.188Z,97152.22
2023-04-01T21:02:10.055Z,97154.84
2023-04-01T21:05:26.202Z,97164.78
2023-04-01T21:08:20.822Z,97159.38
2023-04-01T21:11:29.037Z,97161.63
2023-04-01T21:14:27.909Z,97163.56
2023-04-01T21:17:00.343Z,97149.31
2023-04-01T21:19:51.597Z,97155.06
2023-04-01T21:22:23.735Z,97156.56
2023-04-01T21:25:10.668Z,97166.47
2023-04-01T21:28:05.208Z,97166.84
2023-04-01T21:30:53.021Z,97169.53
2023-04-01T21:34:13.289Z,97192.53
2023-04-01T21:36:52.183Z,97208.97
2023-04-01T21:39:22.117Z,97212.75
2023-04-01T21:42:08.374Z,97196.25
2023-04-01T21:44:43.212Z,97202.34
2023-04-01T21:47:21.095Z,97206.88
2023-04-01T21:50:08.417Z,97216.38
2023-04-01T21:52:57.811Z,97201.75
2023-04-01T21:55:59.727Z,97198.28
2023-04-01T21:58:44.904Z,97191.34
2023-04-01T22:01:35.874Z,97204.34
2023-04-01T22:04:41.528Z,97205.06
2023-04-01T22:07:21.810Z,97208.13
2023-04-01T22:10:02.948Z,97204.31
2023-04-01T22:12:44.708Z,97206.13
2023-04-01T22:15:33.189Z,97205.28
2023-04-01T22:18:17.139Z,97199.94
2023-04-01T22:21:06.372Z,97204.16
2023-04-01T22:23:50.566Z,97207.25
2023-04-01T22:26:49.637Z,97214.97
2023-04-01T22:29:25.708Z,97219.94
2023-04-01T22:32:00.944Z,97229.13
2023-04-01T22:34:46.549Z,97227.63
2023-04-01T22:37:19.316Z,97227.63
2023-04-01T22:39:54.835Z,97231.88
2023-04-01T22:42:47.550Z,97239.56
2023-04-01T22:45:15.775Z,97236.88
2023-04-01T22:48:02.370Z,97231.50
2023-04-01T22:50:37.311Z,97228.75
2023-04-01T22:53:31.345Z,97236.81
2023-04-01T22:56:06.183Z,97231.44
2023-04-01T22:58:39.766Z,97236.88
2023-04-01T23:01:17.634Z,97229.63
2023-04-01T23:03:47.455Z,97233.06
2023-04-01T23:06:20.414Z,97229.25
2023-04-01T23:08:47.242Z,97233.50
2023-04-01T23:11:44.831Z,97235.38
2023-04-01T23:14:38.069Z,97233.06
2023-04-01T23:17:25.086Z,97227.00
2023-04-01T23:19:57.390Z,97224.63
2023-04-01T23:22:46.790Z,97228.38
2023-04-01T23:25:25.747Z,97236.81
2023-04-01T23:28:08.153Z,97241.41
2023-04-01T23:30:40.895Z,97247.56
2023-04-01T23:33:21.063Z,97242.19
2023-04-01T23:36:06.390Z,97248.31
2023-04-01T23:38:42.220Z,97260.63
2023-04-01T23:41:27.077Z,97260.63
2023-04-01T23:44:03.181Z,97254.13
2023-04-01T23:46:31.506Z,97254.06
2023-04-01T23:48:58.640Z,97258.31
2023-04-01T23:51:32.174Z,97255.22
2023-04-01T23:54:04.377Z,97252.53
2023-04-01T23:56:48.382Z,97257.47
2023-04-01T23:59:23.286Z,97262.81
